Terminal Aerodrome Forecast
Issued by NWS

Home | Current Version | Previous Version | Text Only | Print | Product List | Glossary On
Versions: 1 2 3 4 5 6 7 8 9 10 11 12 13 14 15 16 17 18 19 20 21 22
000
FTUS44 KLZK 300157 AAA
TAFBPK
TAF AMD
KBPK 300157Z 3002/3024 20012KT P6SM VCTS SCT025CB BKN050
      TEMPO 3002/3006 VRB15G30KT 2SM TSRA BR OVC010CB
     FM300600 22012KT 5SM BR SCT015 OVC050
      TEMPO 3009/3013 2SM BR OVC015
     FM301300 23012G22KT P6SM VCSH BKN025 OVC050=

USA.gov is the U.S. government's official web portal to all federal, state and local government web resources and services.